sensor_id;sensor_type;location;lat;lon;timestamp;temperature;humidity
59015;DHT22;44799;53.382;14.666;2022-09-09T00:04:35;16.50;99.90
59015;DHT22;44799;53.382;14.666;2022-09-09T00:10:00;16.50;99.90
59015;DHT22;44799;53.382;14.666;2022-09-09T00:15:26;16.60;99.90
59015;DHT22;44799;53.382;14.666;2022-09-09T00:23:21;16.50;99.90
59015;DHT22;44799;53.382;14.666;2022-09-09T00:26:09;16.00;99.90
59015;DHT22;44799;53.382;14.666;2022-09-09T00:31:34;16.50;99.90
59015;DHT22;44799;53.382;14.666;2022-09-09T00:34:18;16.50;99.90
59015;DHT22;44799;53.382;14.666;2022-09-09T00:36:45;16.60;99.90
59015;DHT22;44799;53.382;14.666;2022-09-09T00:39:32;16.60;99.90
59015;DHT22;44799;53.382;14.666;2022-09-09T00:42:18;16.70;99.90
59015;DHT22;44799;53.382;14.666;2022-09-09T00:44:53;15.80;99.90
59015;DHT22;44799;53.382;14.666;2022-09-09T00:50:59;16.80;99.90
59015;DHT22;44799;53.382;14.666;2022-09-09T00:53:51;16.60;99.90
59015;DHT22;44799;53.382;14.666;2022-09-09T00:56:26;16.50;99.90
59015;DHT22;44799;53.382;14.666;2022-09-09T00:59:05;16.60;99.90
59015;DHT22;44799;53.382;14.666;2022-09-09T01:01:33;16.70;99.90
59015;DHT22;44799;53.382;14.666;2022-09-09T01:04:05;16.80;99.90
59015;DHT22;44799;53.382;14.666;2022-09-09T01:06:36;16.80;99.90
59015;DHT22;44799;53.382;14.666;2022-09-09T01:11:49;16.60;99.90
59015;DHT22;44799;53.382;14.666;2022-09-09T01:14:41;16.50;99.90
59015;DHT22;44799;53.382;14.666;2022-09-09T01:27:47;17.80;99.90
59015;DHT22;44799;53.382;14.666;2022-09-09T01:30:16;16.50;99.90
59015;DHT22;44799;53.382;14.666;2022-09-09T01:32:52;15.50;99.90
59015;DHT22;44799;53.382;14.666;2022-09-09T01:38:02;16.40;99.90
59015;DHT22;44799;53.382;14.666;2022-09-09T01:40:28;16.30;99.90
59015;DHT22;44799;53.382;14.666;2022-09-09T01:42:54;16.30;99.90
59015;DHT22;44799;53.382;14.666;2022-09-09T01:45:21;16.40;99.90
59015;DHT22;44799;53.382;14.666;2022-09-09T01:47:47;16.50;99.90
59015;DHT22;44799;53.382;14.666;2022-09-09T01:50:15;16.40;99.90
59015;DHT22;44799;53.382;14.666;2022-09-09T01:52:43;16.50;99.90
59015;DHT22;44799;53.382;14.666;2022-09-09T01:55:10;16.40;99.90
59015;DHT22;44799;53.382;14.666;2022-09-09T01:57:45;16.20;99.90
59015;DHT22;44799;53.382;14.666;2022-09-09T02:00:14;15.10;99.90
59015;DHT22;44799;53.382;14.666;2022-09-09T02:02:56;16.40;99.90
59015;DHT22;44799;53.382;14.666;2022-09-09T02:05:28;16.30;99.90
59015;DHT22;44799;53.382;14.666;2022-09-09T02:08:05;16.30;99.90
59015;DHT22;44799;53.382;14.666;2022-09-09T02:13:29;16.30;99.90
59015;DHT22;44799;53.382;14.666;2022-09-09T02:16:03;16.30;99.90
59015;DHT22;44799;53.382;14.666;2022-09-09T02:18:40;16.20;99.90
59015;DHT22;44799;53.382;14.666;2022-09-09T02:21:09;18.10;99.90
59015;DHT22;44799;53.382;14.666;2022-09-09T02:23:38;15.10;99.90
59015;DHT22;44799;53.382;14.666;2022-09-09T02:26:06;17.80;99.90
59015;DHT22;44799;53.382;14.666;2022-09-09T02:28:34;16.00;99.90
59015;DHT22;44799;53.382;14.666;2022-09-09T02:31:02;16.00;99.90
59015;DHT22;44799;53.382;14.666;2022-09-09T02:33:40;15.90;99.90
59015;DHT22;44799;53.382;14.666;2022-09-09T02:36:09;15.90;99.90
59015;DHT22;44799;53.382;14.666;2022-09-09T02:38:42;15.90;99.90
59015;DHT22;44799;53.382;14.666;2022-09-09T02:41:11;15.00;99.90
59015;DHT22;44799;53.382;14.666;2022-09-09T02:43:37;15.90;99.90
59015;DHT22;44799;53.382;14.666;2022-09-09T02:49:01;16.00;99.90
59015;DHT22;44799;53.382;14.666;2022-09-09T02:51:51;16.10;99.90
59015;DHT22;44799;53.382;14.666;2022-09-09T02:54:32;15.40;99.90
59015;DHT22;44799;53.382;14.666;2022-09-09T02:59:29;16.20;99.90
59015;DHT22;44799;53.382;14.666;2022-09-09T03:01:56;16.10;99.90
59015;DHT22;44799;53.382;14.666;2022-09-09T03:04:22;16.30;99.90
59015;DHT22;44799;53.382;14.666;2022-09-09T03:06:50;16.40;99.90
59015;DHT22;44799;53.382;14.666;2022-09-09T03:09:15;16.40;99.90
59015;DHT22;44799;53.382;14.666;2022-09-09T03:11:41;16.40;99.90
59015;DHT22;44799;53.382;14.666;2022-09-09T03:14:07;16.40;99.90
59015;DHT22;44799;53.382;14.666;2022-09-09T03:16:34;16.50;99.90
59015;DHT22;44799;53.382;14.666;2022-09-09T03:19:00;16.50;99.90
59015;DHT22;44799;53.382;14.666;2022-09-09T03:21:26;16.50;99.90
59015;DHT22;44799;53.382;14.666;2022-09-09T03:23:52;16.60;99.90
59015;DHT22;44799;53.382;14.666;2022-09-09T03:26:18;16.60;99.90
59015;DHT22;44799;53.382;14.666;2022-09-09T03:28:44;16.60;99.90
59015;DHT22;44799;53.382;14.666;2022-09-09T03:31:10;16.70;99.90
59015;DHT22;44799;53.382;14.666;2022-09-09T03:33:37;16.70;99.90
59015;DHT22;44799;53.382;14.666;2022-09-09T03:36:04;16.70;99.90
59015;DHT22;44799;53.382;14.666;2022-09-09T03:38:30;16.60;99.90
59015;DHT22;44799;53.382;14.666;2022-09-09T03:40:57;16.70;99.90
59015;DHT22;44799;53.382;14.666;2022-09-09T03:43:26;16.70;99.90
59015;DHT22;44799;53.382;14.666;2022-09-09T03:45:53;16.00;99.90
59015;DHT22;44799;53.382;14.666;2022-09-09T03:48:23;16.70;99.90
59015;DHT22;44799;53.382;14.666;2022-09-09T03:50:51;16.70;99.90
59015;DHT22;44799;53.382;14.666;2022-09-09T03:53:19;16.70;99.90
59015;DHT22;44799;53.382;14.666;2022-09-09T03:55:46;16.70;99.90
59015;DHT22;44799;53.382;14.666;2022-09-09T03:58:13;16.70;99.90
59015;DHT22;44799;53.382;14.666;2022-09-09T04:00:39;16.70;99.90
59015;DHT22;44799;53.382;14.666;2022-09-09T04:03:10;15.80;99.90
59015;DHT22;44799;53.382;14.666;2022-09-09T04:05:36;16.70;99.90
59015;DHT22;44799;53.382;14.666;2022-09-09T04:08:07;16.70;99.90
59015;DHT22;44799;53.382;14.666;2022-09-09T04:10:34;16.70;99.90
59015;DHT22;44799;53.382;14.666;2022-09-09T04:13:03;16.60;99.90
59015;DHT22;44799;53.382;14.666;2022-09-09T04:15:30;16.60;99.90
59015;DHT22;44799;53.382;14.666;2022-09-09T04:17:56;16.60;99.90
59015;DHT22;44799;53.382;14.666;2022-09-09T04:20:22;16.60;99.90
59015;DHT22;44799;53.382;14.666;2022-09-09T04:22:48;16.60;99.90
59015;DHT22;44799;53.382;14.666;2022-09-09T04:25:14;16.70;99.90
59015;DHT22;44799;53.382;14.666;2022-09-09T04:27:40;16.50;99.90
59015;DHT22;44799;53.382;14.666;2022-09-09T04:30:08;16.50;99.90
59015;DHT22;44799;53.382;14.666;2022-09-09T04:32:34;16.50;99.90
59015;DHT22;44799;53.382;14.666;2022-09-09T04:35:01;16.50;99.90
59015;DHT22;44799;53.382;14.666;2022-09-09T04:37:27;16.40;99.90
59015;DHT22;44799;53.382;14.666;2022-09-09T04:39:53;16.70;99.90
59015;DHT22;44799;53.382;14.666;2022-09-09T04:42:18;16.10;99.90
59015;DHT22;44799;53.382;14.666;2022-09-09T04:44:45;16.40;99.90
59015;DHT22;44799;53.382;14.666;2022-09-09T04:47:11;16.30;99.90
59015;DHT22;44799;53.382;14.666;2022-09-09T04:49:37;16.30;99.90
59015;DHT22;44799;53.382;14.666;2022-09-09T04:52:04;16.30;99.90
59015;DHT22;44799;53.382;14.666;2022-09-09T04:54:30;16.30;99.90
59015;DHT22;44799;53.382;14.666;2022-09-09T04:56:55;16.30;99.90
59015;DHT22;44799;53.382;14.666;2022-09-09T04:59:22;16.30;99.90
59015;DHT22;44799;53.382;14.666;2022-09-09T05:01:48;16.40;99.90
59015;DHT22;44799;53.382;14.666;2022-09-09T05:04:15;16.40;99.90
59015;DHT22;44799;53.382;14.666;2022-09-09T05:06:41;16.40;99.90
59015;DHT22;44799;53.382;14.666;2022-09-09T05:09:08;16.50;99.90
59015;DHT22;44799;53.382;14.666;2022-09-09T05:11:34;16.50;99.90
59015;DHT22;44799;53.382;14.666;2022-09-09T05:14:04;16.50;99.90
59015;DHT22;44799;53.382;14.666;2022-09-09T05:16:30;16.80;99.90
59015;DHT22;44799;53.382;14.666;2022-09-09T05:18:56;16.30;99.90
59015;DHT22;44799;53.382;14.666;2022-09-09T05:21:25;16.80;99.90
59015;DHT22;44799;53.382;14.666;2022-09-09T05:23:52;16.80;99.90
59015;DHT22;44799;53.382;14.666;2022-09-09T05:26:20;16.80;99.90
59015;DHT22;44799;53.382;14.666;2022-09-09T05:28:46;16.90;99.90
59015;DHT22;44799;53.382;14.666;2022-09-09T05:31:14;16.90;99.90
59015;DHT22;44799;53.382;14.666;2022-09-09T05:33:43;17.10;99.90
59015;DHT22;44799;53.382;14.666;2022-09-09T05:36:20;16.60;99.90
59015;DHT22;44799;53.382;14.666;2022-09-09T05:38:46;17.00;99.90
59015;DHT22;44799;53.382;14.666;2022-09-09T05:41:12;17.00;99.90
59015;DHT22;44799;53.382;14.666;2022-09-09T05:43:41;17.00;99.90
59015;DHT22;44799;53.382;14.666;2022-09-09T05:46:18;17.00;99.90
59015;DHT22;44799;53.382;14.666;2022-09-09T05:48:46;17.10;99.90
59015;DHT22;44799;53.382;14.666;2022-09-09T05:51:15;17.10;99.90
59015;DHT22;44799;53.382;14.666;2022-09-09T05:53:41;17.10;99.90
59015;DHT22;44799;53.382;14.666;2022-09-09T05:56:10;17.20;99.90
59015;DHT22;44799;53.382;14.666;2022-09-09T05:58:37;17.20;99.90
59015;DHT22;44799;53.382;14.666;2022-09-09T06:01:09;17.30;99.90
59015;DHT22;44799;53.382;14.666;2022-09-09T06:03:40;17.30;99.90
59015;DHT22;44799;53.382;14.666;2022-09-09T06:06:08;17.30;99.90
59015;DHT22;44799;53.382;14.666;2022-09-09T06:08:36;17.30;99.90
59015;DHT22;44799;53.382;14.666;2022-09-09T06:11:04;17.30;99.90
59015;DHT22;44799;53.382;14.666;2022-09-09T06:13:31;17.40;99.90
59015;DHT22;44799;53.382;14.666;2022-09-09T06:15:57;17.50;99.90
59015;DHT22;44799;53.382;14.666;2022-09-09T06:18:24;17.50;99.90
59015;DHT22;44799;53.382;14.666;2022-09-09T06:23:20;18.60;99.90
59015;DHT22;44799;53.382;14.666;2022-09-09T06:25:46;17.70;99.90
59015;DHT22;44799;53.382;14.666;2022-09-09T06:28:12;18.20;99.90
59015;DHT22;44799;53.382;14.666;2022-09-09T06:30:39;17.70;99.90
59015;DHT22;44799;53.382;14.666;2022-09-09T06:33:05;17.80;99.90
59015;DHT22;44799;53.382;14.666;2022-09-09T06:35:31;17.80;99.90
59015;DHT22;44799;53.382;14.666;2022-09-09T06:37:57;17.70;99.90
59015;DHT22;44799;53.382;14.666;2022-09-09T06:40:24;17.60;99.90
59015;DHT22;44799;53.382;14.666;2022-09-09T06:42:50;17.50;99.90
59015;DHT22;44799;53.382;14.666;2022-09-09T06:45:17;17.60;99.90
59015;DHT22;44799;53.382;14.666;2022-09-09T06:47:43;17.50;99.90
59015;DHT22;44799;53.382;14.666;2022-09-09T06:50:10;17.60;99.90
59015;DHT22;44799;53.382;14.666;2022-09-09T06:52:36;17.60;99.90
59015;DHT22;44799;53.382;14.666;2022-09-09T06:55:03;17.70;99.90
59015;DHT22;44799;53.382;14.666;2022-09-09T06:57:29;17.70;99.90
59015;DHT22;44799;53.382;14.666;2022-09-09T06:59:55;17.70;99.90
59015;DHT22;44799;53.382;14.666;2022-09-09T07:02:21;17.20;99.90
59015;DHT22;44799;53.382;14.666;2022-09-09T07:04:47;17.80;99.90
59015;DHT22;44799;53.382;14.666;2022-09-09T07:07:13;17.70;99.90
59015;DHT22;44799;53.382;14.666;2022-09-09T07:09:40;17.80;99.90
59015;DHT22;44799;53.382;14.666;2022-09-09T07:12:06;17.60;99.90
59015;DHT22;44799;53.382;14.666;2022-09-09T07:14:32;17.80;99.90
59015;DHT22;44799;53.382;14.666;2022-09-09T07:16:59;17.80;99.90
59015;DHT22;44799;53.382;14.666;2022-09-09T07:19:26;17.60;99.90
59015;DHT22;44799;53.382;14.666;2022-09-09T07:21:52;17.70;99.90
59015;DHT22;44799;53.382;14.666;2022-09-09T07:24:18;17.10;99.90
59015;DHT22;44799;53.382;14.666;2022-09-09T07:26:43;17.90;99.90
59015;DHT22;44799;53.382;14.666;2022-09-09T07:29:09;19.20;99.90
59015;DHT22;44799;53.382;14.666;2022-09-09T07:31:38;18.10;99.90
59015;DHT22;44799;53.382;14.666;2022-09-09T07:34:05;18.80;99.90
59015;DHT22;44799;53.382;14.666;2022-09-09T07:36:37;18.20;99.90
59015;DHT22;44799;53.382;14.666;2022-09-09T07:39:06;18.30;99.90
59015;DHT22;44799;53.382;14.666;2022-09-09T07:41:34;18.40;99.90
59015;DHT22;44799;53.382;14.666;2022-09-09T07:44:05;18.50;99.90
59015;DHT22;44799;53.382;14.666;2022-09-09T07:46:32;18.50;99.90
59015;DHT22;44799;53.382;14.666;2022-09-09T07:48:58;18.60;99.90
59015;DHT22;44799;53.382;14.666;2022-09-09T07:51:27;17.70;99.90
59015;DHT22;44799;53.382;14.666;2022-09-09T07:53:58;18.70;99.90
59015;DHT22;44799;53.382;14.666;2022-09-09T07:56:25;18.70;99.90
59015;DHT22;44799;53.382;14.666;2022-09-09T07:58:53;18.80;99.90
59015;DHT22;44799;53.382;14.666;2022-09-09T08:01:31;19.00;99.90
59015;DHT22;44799;53.382;14.666;2022-09-09T08:04:03;19.00;99.90
59015;DHT22;44799;53.382;14.666;2022-09-09T08:06:39;18.90;99.90
59015;DHT22;44799;53.382;14.666;2022-09-09T08:09:08;19.00;99.90
59015;DHT22;44799;53.382;14.666;2022-09-09T08:11:34;19.00;99.90
59015;DHT22;44799;53.382;14.666;2022-09-09T08:14:02;19.10;99.90
59015;DHT22;44799;53.382;14.666;2022-09-09T08:16:31;19.20;99.90
59015;DHT22;44799;53.382;14.666;2022-09-09T08:18:58;19.20;99.90
59015;DHT22;44799;53.382;14.666;2022-09-09T08:21:26;19.30;99.90
59015;DHT22;44799;53.382;14.666;2022-09-09T08:23:54;19.30;99.90
59015;DHT22;44799;53.382;14.666;2022-09-09T08:26:31;19.20;99.90
59015;DHT22;44799;53.382;14.666;2022-09-09T08:28:59;19.50;99.90
59015;DHT22;44799;53.382;14.666;2022-09-09T08:31:27;19.60;99.90
59015;DHT22;44799;53.382;14.666;2022-09-09T08:33:54;21.00;99.90
59015;DHT22;44799;53.382;14.666;2022-09-09T08:36:23;19.70;99.90
59015;DHT22;44799;53.382;14.666;2022-09-09T08:38:50;19.80;99.90
59015;DHT22;44799;53.382;14.666;2022-09-09T08:50:24;20.00;99.90
59015;DHT22;44799;53.382;14.666;2022-09-09T08:58:19;20.20;99.90
59015;DHT22;44799;53.382;14.666;2022-09-09T09:01:16;20.20;99.90
59015;DHT22;44799;53.382;14.666;2022-09-09T09:10:09;20.20;99.90
59015;DHT22;44799;53.382;14.666;2022-09-09T09:12:38;20.20;99.90
59015;DHT22;44799;53.382;14.666;2022-09-09T09:15:18;20.30;99.90
59015;DHT22;44799;53.382;14.666;2022-09-09T09:17:46;20.20;99.90
59015;DHT22;44799;53.382;14.666;2022-09-09T09:20:15;20.30;99.90
59015;DHT22;44799;53.382;14.666;2022-09-09T09:23:01;20.30;99.90
59015;DHT22;44799;53.382;14.666;2022-09-09T09:25:35;20.40;99.90
59015;DHT22;44799;53.382;14.666;2022-09-09T09:28:12;20.40;99.90
59015;DHT22;44799;53.382;14.666;2022-09-09T09:31:07;20.50;99.90
59015;DHT22;44799;53.382;14.666;2022-09-09T09:33:47;20.50;99.90
59015;DHT22;44799;53.382;14.666;2022-09-09T09:36:14;20.90;99.90
59015;DHT22;44799;53.382;14.666;2022-09-09T09:38:55;20.60;99.90
59015;DHT22;44799;53.382;14.666;2022-09-09T09:41:40;20.70;99.90
59015;DHT22;44799;53.382;14.666;2022-09-09T09:44:39;20.70;99.90
59015;DHT22;44799;53.382;14.666;2022-09-09T09:47:17;20.70;99.90
59015;DHT22;44799;53.382;14.666;2022-09-09T09:49:54;20.80;99.90
59015;DHT22;44799;53.382;14.666;2022-09-09T09:52:26;20.80;99.90
59015;DHT22;44799;53.382;14.666;2022-09-09T09:54:53;20.80;99.90
59015;DHT22;44799;53.382;14.666;2022-09-09T09:57:27;20.80;99.90
59015;DHT22;44799;53.382;14.666;2022-09-09T10:02:42;20.90;99.90
59015;DHT22;44799;53.382;14.666;2022-09-09T10:05:15;20.90;99.90
59015;DHT22;44799;53.382;14.666;2022-09-09T10:07:41;21.00;99.90
59015;DHT22;44799;53.382;14.666;2022-09-09T10:13:15;21.10;99.90
59015;DHT22;44799;53.382;14.666;2022-09-09T10:16:25;21.20;99.90
59015;DHT22;44799;53.382;14.666;2022-09-09T10:30:19;21.40;99.90
59015;DHT22;44799;53.382;14.666;2022-09-09T10:38:20;21.70;99.90
59015;DHT22;44799;53.382;14.666;2022-09-09T10:43:56;21.30;99.90
59015;DHT22;44799;53.382;14.666;2022-09-09T10:54:45;22.70;99.90
59015;DHT22;44799;53.382;14.666;2022-09-09T10:57:22;22.70;99.90
59015;DHT22;44799;53.382;14.666;2022-09-09T10:59:53;22.80;99.90
59015;DHT22;44799;53.382;14.666;2022-09-09T11:02:30;22.90;99.90
59015;DHT22;44799;53.382;14.666;2022-09-09T11:05:16;23.00;99.90
59015;DHT22;44799;53.382;14.666;2022-09-09T11:07:59;23.10;99.90
59015;DHT22;44799;53.382;14.666;2022-09-09T11:13:47;23.30;99.90
59015;DHT22;44799;53.382;14.666;2022-09-09T11:16:30;23.50;99.90
59015;DHT22;44799;53.382;14.666;2022-09-09T11:19:28;23.50;99.70
59015;DHT22;44799;53.382;14.666;2022-09-09T11:21:57;23.50;99.10
59015;DHT22;44799;53.382;14.666;2022-09-09T11:24:28;23.60;99.80
59015;DHT22;44799;53.382;14.666;2022-09-09T11:27:26;23.60;99.30
59015;DHT22;44799;53.382;14.666;2022-09-09T11:30:11;23.60;99.00
59015;DHT22;44799;53.382;14.666;2022-09-09T11:32:58;23.50;99.20
59015;DHT22;44799;53.382;14.666;2022-09-09T11:38:28;24.50;99.80
59015;DHT22;44799;53.382;14.666;2022-09-09T11:41:05;23.60;99.50
59015;DHT22;44799;53.382;14.666;2022-09-09T11:43:45;23.70;99.40
59015;DHT22;44799;53.382;14.666;2022-09-09T11:46:15;23.90;99.00
59015;DHT22;44799;53.382;14.666;2022-09-09T11:48:44;23.50;98.50
59015;DHT22;44799;53.382;14.666;2022-09-09T11:53:59;24.60;98.40
59015;DHT22;44799;53.382;14.666;2022-09-09T11:56:59;24.70;97.40
59015;DHT22;44799;53.382;14.666;2022-09-09T11:59:27;25.00;97.10
59015;DHT22;44799;53.382;14.666;2022-09-09T12:02:00;24.90;96.40
59015;DHT22;44799;53.382;14.666;2022-09-09T12:04:28;24.70;95.70
59015;DHT22;44799;53.382;14.666;2022-09-09T12:07:01;24.40;95.80
59015;DHT22;44799;53.382;14.666;2022-09-09T12:17:22;24.40;96.70
59015;DHT22;44799;53.382;14.666;2022-09-09T12:20:16;24.40;96.80
59015;DHT22;44799;53.382;14.666;2022-09-09T12:25:48;24.80;96.30
59015;DHT22;44799;53.382;14.666;2022-09-09T12:28:18;25.20;95.60
59015;DHT22;44799;53.382;14.666;2022-09-09T12:31:10;25.40;94.20
59015;DHT22;44799;53.382;14.666;2022-09-09T12:33:44;25.60;94.00
59015;DHT22;44799;53.382;14.666;2022-09-09T12:36:23;25.60;93.60
59015;DHT22;44799;53.382;14.666;2022-09-09T12:38:50;25.60;93.90
59015;DHT22;44799;53.382;14.666;2022-09-09T12:41:26;26.60;94.30
59015;DHT22;44799;53.382;14.666;2022-09-09T12:44:04;25.50;94.00
59015;DHT22;44799;53.382;14.666;2022-09-09T12:46:42;25.70;93.70
59015;DHT22;44799;53.382;14.666;2022-09-09T12:49:44;25.70;94.00
59015;DHT22;44799;53.382;14.666;2022-09-09T12:52:26;25.50;93.60
59015;DHT22;44799;53.382;14.666;2022-09-09T12:54:55;25.30;94.30
59015;DHT22;44799;53.382;14.666;2022-09-09T12:57:23;25.10;94.40
59015;DHT22;44799;53.382;14.666;2022-09-09T12:59:51;24.90;94.50
59015;DHT22;44799;53.382;14.666;2022-09-09T13:02:22;24.80;94.40
59015;DHT22;44799;53.382;14.666;2022-09-09T13:04:48;24.70;94.70
59015;DHT22;44799;53.382;14.666;2022-09-09T13:07:16;24.60;95.30
59015;DHT22;44799;53.382;14.666;2022-09-09T13:09:43;24.40;95.60
59015;DHT22;44799;53.382;14.666;2022-09-09T13:12:19;24.20;96.20
59015;DHT22;44799;53.382;14.666;2022-09-09T13:14:49;22.70;96.60
59015;DHT22;44799;53.382;14.666;2022-09-09T13:17:26;24.20;97.10
59015;DHT22;44799;53.382;14.666;2022-09-09T13:19:56;24.40;97.00
59015;DHT22;44799;53.382;14.666;2022-09-09T13:22:35;24.70;97.30
59015;DHT22;44799;53.382;14.666;2022-09-09T13:25:06;25.30;96.80
59015;DHT22;44799;53.382;14.666;2022-09-09T13:30:23;26.20;95.70
59015;DHT22;44799;53.382;14.666;2022-09-09T13:35:45;26.80;94.00
59015;DHT22;44799;53.382;14.666;2022-09-09T13:38:14;27.10;93.50
59015;DHT22;44799;53.382;14.666;2022-09-09T13:40:55;27.50;92.80
59015;DHT22;44799;53.382;14.666;2022-09-09T13:43:24;28.00;91.80
59015;DHT22;44799;53.382;14.666;2022-09-09T13:45:59;28.40;90.90
59015;DHT22;44799;53.382;14.666;2022-09-09T13:48:27;28.90;88.40
59015;DHT22;44799;53.382;14.666;2022-09-09T13:51:50;29.20;87.30
59015;DHT22;44799;53.382;14.666;2022-09-09T13:54:12;29.60;85.50
59015;DHT22;44799;53.382;14.666;2022-09-09T13:56:40;29.70;84.30
59015;DHT22;44799;53.382;14.666;2022-09-09T13:59:11;29.70;83.20
59015;DHT22;44799;53.382;14.666;2022-09-09T14:01:37;29.80;82.50
59015;DHT22;44799;53.382;14.666;2022-09-09T14:04:03;29.80;82.00
59015;DHT22;44799;53.382;14.666;2022-09-09T14:06:32;29.80;82.40
59015;DHT22;44799;53.382;14.666;2022-09-09T14:08:58;29.80;81.90
59015;DHT22;44799;53.382;14.666;2022-09-09T14:11:24;29.80;81.60
59015;DHT22;44799;53.382;14.666;2022-09-09T14:13:50;29.70;80.50
59015;DHT22;44799;53.382;14.666;2022-09-09T14:16:17;29.60;79.50
59015;DHT22;44799;53.382;14.666;2022-09-09T14:18:44;29.60;78.70
59015;DHT22;44799;53.382;14.666;2022-09-09T14:21:11;29.50;79.80
59015;DHT22;44799;53.382;14.666;2022-09-09T14:23:37;29.30;79.40
59015;DHT22;44799;53.382;14.666;2022-09-09T14:26:05;29.00;80.40
59015;DHT22;44799;53.382;14.666;2022-09-09T14:28:32;28.60;81.60
59015;DHT22;44799;53.382;14.666;2022-09-09T14:31:03;28.20;81.80
59015;DHT22;44799;53.382;14.666;2022-09-09T14:33:29;27.90;82.50
59015;DHT22;44799;53.382;14.666;2022-09-09T14:36:00;27.60;83.40
59015;DHT22;44799;53.382;14.666;2022-09-09T14:38:31;27.30;84.90
59015;DHT22;44799;53.382;14.666;2022-09-09T14:40:59;27.10;85.80
59015;DHT22;44799;53.382;14.666;2022-09-09T14:43:25;26.70;87.20
59015;DHT22;44799;53.382;14.666;2022-09-09T14:45:52;26.70;87.00
59015;DHT22;44799;53.382;14.666;2022-09-09T14:48:18;26.60;86.90
59015;DHT22;44799;53.382;14.666;2022-09-09T14:50:44;26.60;86.90
59015;DHT22;44799;53.382;14.666;2022-09-09T14:53:10;26.40;88.20
59015;DHT22;44799;53.382;14.666;2022-09-09T14:55:36;26.20;88.40
59015;DHT22;44799;53.382;14.666;2022-09-09T14:58:03;26.10;89.50
59015;DHT22;44799;53.382;14.666;2022-09-09T15:00:29;26.10;90.20
59015;DHT22;44799;53.382;14.666;2022-09-09T15:02:55;26.10;90.20
59015;DHT22;44799;53.382;14.666;2022-09-09T15:05:22;26.10;90.30
59015;DHT22;44799;53.382;14.666;2022-09-09T15:07:47;26.10;90.30
59015;DHT22;44799;53.382;14.666;2022-09-09T15:10:16;26.20;90.30
59015;DHT22;44799;53.382;14.666;2022-09-09T15:12:46;26.20;89.90
59015;DHT22;44799;53.382;14.666;2022-09-09T15:15:12;26.20;90.00
59015;DHT22;44799;53.382;14.666;2022-09-09T15:17:38;26.30;90.00
59015;DHT22;44799;53.382;14.666;2022-09-09T15:20:04;26.40;88.70
59015;DHT22;44799;53.382;14.666;2022-09-09T15:22:31;26.00;88.30
59015;DHT22;44799;53.382;14.666;2022-09-09T15:24:57;26.50;88.90
59015;DHT22;44799;53.382;14.666;2022-09-09T15:27:23;26.50;87.50
59015;DHT22;44799;53.382;14.666;2022-09-09T15:29:49;26.50;87.50
59015;DHT22;44799;53.382;14.666;2022-09-09T15:32:17;26.60;86.70
59015;DHT22;44799;53.382;14.666;2022-09-09T15:34:43;26.70;85.50
59015;DHT22;44799;53.382;14.666;2022-09-09T15:37:12;26.90;85.60
59015;DHT22;44799;53.382;14.666;2022-09-09T15:39:39;27.20;84.00
59015;DHT22;44799;53.382;14.666;2022-09-09T15:42:06;27.50;82.50
59015;DHT22;44799;53.382;14.666;2022-09-09T15:44:51;27.70;82.20
59015;DHT22;44799;53.382;14.666;2022-09-09T15:47:17;27.90;81.70
59015;DHT22;44799;53.382;14.666;2022-09-09T15:49:43;27.90;82.50
59015;DHT22;44799;53.382;14.666;2022-09-09T15:52:10;27.90;82.10
59015;DHT22;44799;53.382;14.666;2022-09-09T15:54:36;27.90;82.10
59015;DHT22;44799;53.382;14.666;2022-09-09T15:57:06;27.80;82.10
59015;DHT22;44799;53.382;14.666;2022-09-09T15:59:32;27.80;81.90
59015;DHT22;44799;53.382;14.666;2022-09-09T16:02:00;27.70;81.80
59015;DHT22;44799;53.382;14.666;2022-09-09T16:04:27;27.60;82.60
59015;DHT22;44799;53.382;14.666;2022-09-09T16:07:00;27.50;83.10
59015;DHT22;44799;53.382;14.666;2022-09-09T16:09:27;27.30;82.90
59015;DHT22;44799;53.382;14.666;2022-09-09T16:11:56;27.10;82.90
59015;DHT22;44799;53.382;14.666;2022-09-09T16:14:23;26.90;83.10
59015;DHT22;44799;53.382;14.666;2022-09-09T16:16:51;26.70;84.00
59015;DHT22;44799;53.382;14.666;2022-09-09T16:19:17;26.50;84.70
59015;DHT22;44799;53.382;14.666;2022-09-09T16:21:49;26.40;85.30
59015;DHT22;44799;53.382;14.666;2022-09-09T16:24:17;26.20;86.10
59015;DHT22;44799;53.382;14.666;2022-09-09T16:26:46;26.00;86.80
59015;DHT22;44799;53.382;14.666;2022-09-09T16:29:13;25.90;87.80
59015;DHT22;44799;53.382;14.666;2022-09-09T16:31:40;25.80;88.50
59015;DHT22;44799;53.382;14.666;2022-09-09T16:34:07;24.50;88.80
59015;DHT22;44799;53.382;14.666;2022-09-09T16:36:35;25.50;89.70
59015;DHT22;44799;53.382;14.666;2022-09-09T16:39:04;25.40;90.20
59015;DHT22;44799;53.382;14.666;2022-09-09T16:41:31;25.20;90.50
59015;DHT22;44799;53.382;14.666;2022-09-09T16:44:05;25.00;90.90
59015;DHT22;44799;53.382;14.666;2022-09-09T16:46:33;24.90;91.30
59015;DHT22;44799;53.382;14.666;2022-09-09T16:49:01;24.70;91.70
59015;DHT22;44799;53.382;14.666;2022-09-09T16:51:30;24.50;92.00
59015;DHT22;44799;53.382;14.666;2022-09-09T16:54:00;24.40;92.40
59015;DHT22;44799;53.382;14.666;2022-09-09T16:56:29;24.30;92.80
59015;DHT22;44799;53.382;14.666;2022-09-09T16:58:58;24.10;93.20
59015;DHT22;44799;53.382;14.666;2022-09-09T17:01:30;24.00;94.10
59015;DHT22;44799;53.382;14.666;2022-09-09T17:04:02;23.90;94.40
59015;DHT22;44799;53.382;14.666;2022-09-09T17:06:29;23.70;94.70
59015;DHT22;44799;53.382;14.666;2022-09-09T17:08:57;23.60;95.10
59015;DHT22;44799;53.382;14.666;2022-09-09T17:11:23;23.40;95.50
59015;DHT22;44799;53.382;14.666;2022-09-09T17:13:50;23.30;95.90
59015;DHT22;44799;53.382;14.666;2022-09-09T17:16:17;23.10;96.30
59015;DHT22;44799;53.382;14.666;2022-09-09T17:18:44;23.00;96.60
59015;DHT22;44799;53.382;14.666;2022-09-09T17:21:16;22.90;97.00
59015;DHT22;44799;53.382;14.666;2022-09-09T17:23:44;22.80;97.60
59015;DHT22;44799;53.382;14.666;2022-09-09T17:26:13;22.40;98.60
59015;DHT22;44799;53.382;14.666;2022-09-09T17:28:40;22.50;98.70
59015;DHT22;44799;53.382;14.666;2022-09-09T17:31:10;22.30;99.10
59015;DHT22;44799;53.382;14.666;2022-09-09T17:33:38;22.20;99.50
59015;DHT22;44799;53.382;14.666;2022-09-09T17:36:14;22.00;99.80
59015;DHT22;44799;53.382;14.666;2022-09-09T17:38:40;21.90;99.90
59015;DHT22;44799;53.382;14.666;2022-09-09T17:41:18;21.80;99.90
59015;DHT22;44799;53.382;14.666;2022-09-09T17:43:45;21.60;99.90